Paramount Hanover — 2CWA7 — position and weather

sailwx.info

Track history (hours):
 
Tides and Currents Weather Stations Pressure Air Temp Water Temp Dewpoint Dewpoint Depression Visibility Wind Speed Wind Dir Waves Ship Positions

Paramount Hanover

Last reported at 2018-Jun-23 06:52 UTC. Time now 2018-Jun-24 11:00 UTC.
Position N 27°49' W 096°54'.

Length 250 m; draft 10 m.

Type: Tanker. MMSI: 235076272.

Date/timePositionNaut miles runAvg speedWind from/ knotsBaromVisibWave heightAir tempDewpointWater temp
2018-Jun-23 06:52N 27°49' W 096°54'0 0.0
2018-Jun-23 04:58N 27°49' W 096°54'0 0.0
2018-Jun-23 04:28N 27°49' W 096°54'0 0.0
2018-Jun-23 03:55N 27°49' W 096°54'0 0.0
2018-Jun-23 03:28N 27°49' W 096°54'132 3.9
2018-Jun-21 17:49N 27°43' W 094°26'512.8
2018-Jun-21 17:25N 27°43' W 094°20'612.7
2018-Jun-21 16:58N 27°44' W 094°14'812.8
2018-Jun-21 16:22N 27°44' W 094°05'613.1
2018-Jun-21 15:55N 27°45' W 093°58'613.1
2018-Jun-21 15:29N 27°45' W 093°52'613.1
2018-Jun-21 15:00N 27°46' W 093°45'713.2
2018-Jun-21 14:29N 27°46' W 093°37'713.3
2018-Jun-21 14:00N 27°47' W 093°30'612.9
2018-Jun-21 13:30N 27°48' W 093°23'612.8
2018-Jun-21 13:00N 27°49' W 093°16'713.2
2018-Jun-21 12:30N 27°49' W 093°08'713.2
2018-Jun-21 11:57N 27°50' W 092°60'613.2
2018-Jun-21 11:30N 27°50' W 092°53'713.0
2018-Jun-21 10:59N 27°51' W 092°46'813.1
2018-Jun-21 10:22N 27°51' W 092°37'  
2018-Jun-15 01:10N 28°22' W 094°26'613.0
2018-Jun-15 00:43N 28°28' W 094°26'313.3
2018-Jun-15 00:29N 28°30' W 094°25'6 0.3
2018-Jun-14 01:23N 28°36' W 094°22'2 4.5
2018-Jun-14 00:56N 28°34' W 094°20'2 5.3
2018-Jun-14 00:30N 28°33' W 094°18'2 3.6
2018-Jun-14 00:00N 28°32' W 094°16'3 1.9
2018-Jun-13 22:23N 28°35' W 094°17'1 0.4
2018-Jun-13 20:33N 28°35' W 094°18'  
Track history (hours):
 
Tides and Currents Weather Stations Pressure Air Temp Water Temp Dewpoint Dewpoint Depression Visibility Wind Speed Wind Dir Waves Ship Positions

Paramount Hanover

Last reported at 2018-Jun-23 06:52 UTC. Time now 2018-Jun-24 11:00 UTC.
Position N 27°49' W 096°54'.

Length 250 m; draft 10 m.

Type: Tanker. MMSI: 235076272.

Date/timePositionNaut miles runAvg speedWind from/ knotsBaromVisibWave heightAir tempDewpointWater temp
2018-Jun-23 06:52N 27°49' W 096°54'0 0.0
2018-Jun-23 04:58N 27°49' W 096°54'0 0.0
2018-Jun-23 04:28N 27°49' W 096°54'0 0.0
2018-Jun-23 03:55N 27°49' W 096°54'0 0.0
2018-Jun-23 03:28N 27°49' W 096°54'132 3.9
2018-Jun-21 17:49N 27°43' W 094°26'512.8
2018-Jun-21 17:25N 27°43' W 094°20'612.7
2018-Jun-21 16:58N 27°44' W 094°14'812.8
2018-Jun-21 16:22N 27°44' W 094°05'613.1
2018-Jun-21 15:55N 27°45' W 093°58'613.1
2018-Jun-21 15:29N 27°45' W 093°52'613.1
2018-Jun-21 15:00N 27°46' W 093°45'713.2
2018-Jun-21 14:29N 27°46' W 093°37'713.3
2018-Jun-21 14:00N 27°47' W 093°30'612.9
2018-Jun-21 13:30N 27°48' W 093°23'612.8
2018-Jun-21 13:00N 27°49' W 093°16'713.2
2018-Jun-21 12:30N 27°49' W 093°08'713.2
2018-Jun-21 11:57N 27°50' W 092°60'613.2
2018-Jun-21 11:30N 27°50' W 092°53'713.0
2018-Jun-21 10:59N 27°51' W 092°46'813.1
2018-Jun-21 10:22N 27°51' W 092°37'  
2018-Jun-15 01:10N 28°22' W 094°26'613.0
2018-Jun-15 00:43N 28°28' W 094°26'313.3
2018-Jun-15 00:29N 28°30' W 094°25'6 0.3
2018-Jun-14 01:23N 28°36' W 094°22'2 4.5
2018-Jun-14 00:56N 28°34' W 094°20'2 5.3
2018-Jun-14 00:30N 28°33' W 094°18'2 3.6
2018-Jun-14 00:00N 28°32' W 094°16'3 1.9
2018-Jun-13 22:23N 28°35' W 094°17'1 0.4
2018-Jun-13 20:33N 28°35' W 094°18'  

Dump ship's entire track history